メインページ
METAR-TAF:

METAR-TAF

空港 :

チェンナイ国際空港

チェンナイ, インド

緯度: 13-00N, 経度: 080-11E, 海抜: 10m

現時点の気象観測

当レポートは21分前の11:00(UTC)に作成
北東の風 10kt
気温 31°C
湿度 55%
気圧 1007 hPa
視程: 7000m
高度2000ftの雲はほとんどない

METAR: VOMM 141100Z 05010KT 7000 FEW020 31/21 Q1007 NOSIG

時間: 16:51 (11:21 UTC)

予報

当レポートは6時間21分前の05:00(UTC)に作成
予報は14日の 06時(UTC)から 15日の 12時(UTC)まで有効
北/北東の風 10kt
視程: 5000m
高度1800ftの雲はほとんどない
高度10000ftの雲は散在している
煙霧
14日の 15時(UTC)から 14日の 16時(UTC)まで徐々に
視程: 4000m
14日の 18時(UTC)から 14日の 24時(UTC)まで一時的に
視程: 3000m
高度1500ftの雲は散在している
高度2500ftの雲はほとんどない, 積乱雲.
高度8000ftの曇り
15日の 04時(UTC)から 15日の 12時(UTC)まで一時的に
視程: 1000m
高度1000ftの雲はほとんどない
高度1500ftの雲は散在している
高度2500ftの雲はほとんどない, 積乱雲.
高度8000ftの曇り

TAF: VOMM 140500Z 1406/1512 02010KT 5000 HZ FEW018 SCT100 BECMG 1415/1416 4000 BR TEMPO 1418/1424 3000 -TSRA/RA SCT015 FEW025CB OVC080 TEMPO 1504/1512 1000 TSRA/SHRA FEW010 SCT015 FEW025CB OVC080

4,000以上の空港の気象観測と天気予報(METAR報とTAF報)

利用可能な観測所は地図上に黄色い丸と赤い丸で示す。

丸の上にカーソルを重ねると観測所名を参照できる。

次にクリックすると気象観測と天気予報を参照できる。

マップの切り替え:黒色「×」印の緑ボタンをクリックして拡大、「-」印の緑ボタンをクリックして縮小、緑色の三角印をクリックして隣りの地図に切り替え


METAR-TAF: